createdAt,value
2017-09-09T00:02:01.349Z,2.00
2017-09-09T00:04:27.987Z,2.30
2017-09-09T00:06:54.622Z,2.30
2017-09-09T00:09:21.277Z,2.13
2017-09-09T00:11:48.001Z,2.77
2017-09-09T00:14:14.667Z,2.10
2017-09-09T00:16:41.308Z,2.20
2017-09-09T00:19:07.971Z,2.33
2017-09-09T00:21:34.601Z,2.07
2017-09-09T00:24:01.230Z,2.23
2017-09-09T00:26:27.906Z,2.07
2017-09-09T00:28:54.554Z,1.97
2017-09-09T00:31:21.815Z,2.20
2017-09-09T00:33:48.474Z,2.37
2017-09-09T00:36:15.146Z,1.83
2017-09-09T00:38:41.837Z,1.90
2017-09-09T00:41:08.582Z,1.90
2017-09-09T00:43:35.250Z,2.30
2017-09-09T00:46:01.875Z,2.17
2017-09-09T00:48:28.553Z,2.30
2017-09-09T00:50:55.180Z,1.97
2017-09-09T00:53:21.807Z,2.07
2017-09-09T00:55:48.510Z,2.57
2017-09-09T00:58:15.140Z,2.20
2017-09-09T01:00:41.832Z,1.90
2017-09-09T01:03:08.526Z,2.10
2017-09-09T01:05:35.157Z,2.23
2017-09-09T01:08:01.833Z,2.30
2017-09-09T01:10:28.464Z,2.37
2017-09-09T01:12:55.175Z,2.30
2017-09-09T01:15:21.816Z,2.80
2017-09-09T01:17:48.660Z,2.30
2017-09-09T01:20:15.330Z,2.20
2017-09-09T01:22:41.959Z,2.40
2017-09-09T01:25:08.620Z,1.90
2017-09-09T01:27:35.299Z,1.90
2017-09-09T01:30:02.066Z,2.07
2017-09-09T01:32:28.695Z,2.50
2017-09-09T01:34:55.432Z,2.43
2017-09-09T01:37:22.069Z,2.17
2017-09-09T01:39:48.744Z,2.20
2017-09-09T01:42:15.384Z,2.33
2017-09-09T01:44:42.025Z,2.13
2017-09-09T01:47:08.695Z,2.23
2017-09-09T01:49:35.318Z,2.03
2017-09-09T01:52:02.001Z,2.40
2017-09-09T01:54:28.636Z,2.23
2017-09-09T01:56:55.263Z,1.87
2017-09-09T01:59:21.931Z,2.20
2017-09-09T02:01:48.604Z,2.10
2017-09-09T02:04:15.230Z,2.60
2017-09-09T02:06:41.928Z,2.00
2017-09-09T02:09:08.564Z,1.73
2017-09-09T02:11:35.246Z,1.97
2017-09-09T02:14:01.888Z,1.90
2017-09-09T02:16:28.582Z,2.00
2017-09-09T02:18:55.273Z,2.60
2017-09-09T02:21:21.915Z,2.77
2017-09-09T02:23:48.555Z,2.10
2017-09-09T02:26:15.237Z,1.67
2017-09-09T02:28:41.873Z,2.03
2017-09-09T02:31:08.617Z,2.07
2017-09-09T02:33:35.252Z,1.90
2017-09-09T02:36:01.927Z,2.07
2017-09-09T02:38:28.564Z,2.30
2017-09-09T02:40:55.218Z,1.90
2017-09-09T02:43:21.882Z,2.23
2017-09-09T02:45:48.557Z,2.00
2017-09-09T02:48:15.223Z,2.20
2017-09-09T02:50:41.903Z,2.10
2017-09-09T02:53:08.531Z,2.10
2017-09-09T02:55:35.151Z,1.90
2017-09-09T02:58:01.831Z,2.10
2017-09-09T03:00:28.458Z,2.00
2017-09-09T03:02:55.083Z,2.30
2017-09-09T03:05:21.748Z,2.30
2017-09-09T03:07:48.423Z,2.40
2017-09-09T03:10:15.050Z,2.10
2017-09-09T03:12:41.734Z,2.13
2017-09-09T03:15:08.376Z,2.30
2017-09-09T03:17:35.012Z,2.40
2017-09-09T03:20:01.691Z,1.97
2017-09-09T03:22:28.339Z,3.10
2017-09-09T03:24:54.962Z,2.40
2017-09-09T03:27:21.636Z,2.20
2017-09-09T03:29:48.284Z,2.27
2017-09-09T03:32:14.965Z,1.80
2017-09-09T03:34:41.599Z,2.13
2017-09-09T03:37:08.231Z,2.10
2017-09-09T03:39:34.943Z,1.80
2017-09-09T03:42:01.573Z,2.50
2017-09-09T03:44:28.195Z,1.67
2017-09-09T03:46:54.861Z,2.10
2017-09-09T03:49:21.541Z,2.20
2017-09-09T03:51:48.282Z,1.70
2017-09-09T03:54:14.917Z,1.83
2017-09-09T03:56:41.598Z,2.13
2017-09-09T03:59:08.237Z,2.10
2017-09-09T04:01:35.579Z,1.80
2017-09-09T04:04:02.206Z,2.20
2017-09-09T04:06:28.883Z,1.90
2017-09-09T04:08:55.521Z,2.27
2017-09-09T04:11:22.144Z,2.63
2017-09-09T04:13:48.810Z,1.83
2017-09-09T04:16:15.539Z,2.07
2017-09-09T04:18:42.163Z,1.70
2017-09-09T04:21:08.838Z,2.03
2017-09-09T04:23:35.464Z,2.27
2017-09-09T04:26:02.171Z,2.00
2017-09-09T04:28:28.811Z,2.33
2017-09-09T04:30:55.475Z,2.10
2017-09-09T04:33:22.112Z,2.27
2017-09-09T04:35:48.785Z,2.07
2017-09-09T04:38:15.447Z,1.90
2017-09-09T04:40:42.075Z,2.20
2017-09-09T04:43:08.806Z,2.20
2017-09-09T04:45:35.427Z,2.00
2017-09-09T04:48:02.099Z,2.17
2017-09-09T04:50:28.741Z,2.23
2017-09-09T04:52:55.366Z,2.30
2017-09-09T04:55:22.039Z,2.43
2017-09-09T04:57:48.671Z,2.27
2017-09-09T05:00:15.308Z,2.60
2017-09-09T05:02:41.978Z,2.40
2017-09-09T05:05:08.649Z,2.40
2017-09-09T05:07:35.318Z,2.23
2017-09-09T05:10:01.959Z,2.40
2017-09-09T05:12:28.587Z,2.50
2017-09-09T05:14:55.257Z,2.40
2017-09-09T05:17:21.886Z,2.07
2017-09-09T05:19:48.684Z,2.40
2017-09-09T05:22:15.304Z,2.47
2017-09-09T05:24:41.972Z,2.43
2017-09-09T05:27:08.622Z,2.50
2017-09-09T05:29:35.302Z,2.10
2017-09-09T05:32:01.932Z,2.87
2017-09-09T05:34:28.569Z,2.40
2017-09-09T05:36:55.260Z,2.10
2017-09-09T05:39:21.903Z,2.13
2017-09-09T05:41:48.548Z,2.60
2017-09-09T05:44:15.220Z,2.60
2017-09-09T05:46:41.907Z,2.30
2017-09-09T05:49:08.539Z,2.10
2017-09-09T05:51:35.166Z,2.30
2017-09-09T05:54:01.835Z,2.70
2017-09-09T05:56:28.618Z,2.30
2017-09-09T05:58:55.430Z,2.40
2017-09-09T06:01:22.127Z,3.50
2017-09-09T06:03:48.777Z,2.60
2017-09-09T06:06:15.452Z,2.17
2017-09-09T06:08:42.110Z,3.00
2017-09-09T06:11:08.804Z,2.90
2017-09-09T06:13:35.535Z,2.80
2017-09-09T06:16:02.209Z,3.00
2017-09-09T06:18:28.879Z,3.13
2017-09-09T06:20:55.552Z,2.57
2017-09-09T06:23:22.218Z,2.87
2017-09-09T06:25:48.905Z,2.57
2017-09-09T06:28:15.595Z,3.80
2017-09-09T06:30:42.230Z,2.80
2017-09-09T06:33:08.863Z,3.10
2017-09-09T06:35:35.539Z,3.60
2017-09-09T06:38:02.206Z,3.20
2017-09-09T06:40:28.931Z,3.17
2017-09-09T06:42:55.599Z,3.50
2017-09-09T06:45:22.250Z,2.80
2017-09-09T06:47:48.921Z,4.10
2017-09-09T06:50:15.550Z,3.43
2017-09-09T06:52:42.224Z,3.30
2017-09-09T06:55:08.842Z,3.27
2017-09-09T06:57:35.508Z,3.20
2017-09-09T07:00:02.136Z,3.63
2017-09-09T07:02:28.908Z,3.30
2017-09-09T07:04:55.555Z,3.83
2017-09-09T07:07:22.184Z,3.53
2017-09-09T07:09:48.871Z,3.60
2017-09-09T07:12:15.505Z,3.97
2017-09-09T07:14:42.134Z,3.90
2017-09-09T07:17:08.838Z,4.20
2017-09-09T07:19:35.479Z,4.00
2017-09-09T07:22:02.159Z,3.70
2017-09-09T07:24:28.853Z,4.00
2017-09-09T07:26:55.496Z,3.70
2017-09-09T07:29:22.178Z,3.80
2017-09-09T07:31:48.870Z,3.27
2017-09-09T07:34:15.496Z,4.00
2017-09-09T07:36:42.179Z,3.23
2017-09-09T07:39:08.842Z,3.17
2017-09-09T07:41:35.470Z,3.37
2017-09-09T07:44:02.140Z,3.40
2017-09-09T07:46:28.800Z,3.93
2017-09-09T07:48:55.539Z,3.53
2017-09-09T07:51:22.167Z,3.10
2017-09-09T07:53:48.805Z,3.80
2017-09-09T07:56:15.476Z,3.60
2017-09-09T07:58:42.146Z,3.07
2017-09-09T08:01:08.833Z,3.60
2017-09-09T08:03:35.576Z,3.40
2017-09-09T08:06:02.210Z,2.87
2017-09-09T08:08:28.951Z,3.17
2017-09-09T08:10:55.589Z,2.60
2017-09-09T08:13:22.215Z,2.27
2017-09-09T08:15:48.898Z,2.80
2017-09-09T08:18:15.568Z,1.80
2017-09-09T08:20:42.207Z,1.47
2017-09-09T08:23:08.888Z,1.67
2017-09-09T08:25:35.620Z,1.23
2017-09-09T08:28:02.281Z,0.83
2017-09-09T08:30:28.901Z,1.90
2017-09-09T08:32:55.560Z,1.10
2017-09-09T08:35:22.236Z,0.90
2017-09-09T08:37:48.868Z,1.37
2017-09-09T08:40:15.513Z,0.97
2017-09-09T08:42:42.196Z,1.50
2017-09-09T08:45:08.836Z,1.53
2017-09-09T08:47:35.463Z,1.53
2017-09-09T08:50:02.156Z,1.70
2017-09-09T08:52:28.785Z,1.70
2017-09-09T08:54:55.423Z,1.67
2017-09-09T08:57:22.119Z,3.07
2017-09-09T08:59:48.754Z,2.00
2017-09-09T09:02:15.434Z,1.80
2017-09-09T09:04:42.071Z,1.60
2017-09-09T09:07:08.745Z,1.77
2017-09-09T09:09:35.391Z,1.57
2017-09-09T09:12:02.155Z,1.67
2017-09-09T09:14:28.839Z,1.70
2017-09-09T09:16:55.480Z,2.20
2017-09-09T09:19:22.169Z,2.90
2017-09-09T09:21:48.823Z,2.70
2017-09-09T09:24:15.547Z,2.00
2017-09-09T09:26:42.212Z,2.47
2017-09-09T09:29:08.834Z,2.07
2017-09-09T09:31:35.515Z,2.00
2017-09-09T09:34:02.146Z,2.20
2017-09-09T09:36:28.785Z,2.83
2017-09-09T09:38:55.576Z,1.83
2017-09-09T09:41:22.214Z,2.30
2017-09-09T09:43:48.847Z,2.50
2017-09-09T09:46:15.517Z,2.50
2017-09-09T09:48:42.234Z,2.40
2017-09-09T09:51:08.876Z,1.90
2017-09-09T09:53:35.610Z,2.10
2017-09-09T09:56:02.280Z,2.83
2017-09-09T09:58:28.991Z,2.20
2017-09-09T10:00:55.675Z,2.47
2017-09-09T10:03:22.339Z,2.57
2017-09-09T10:05:48.985Z,2.10
2017-09-09T10:08:15.670Z,1.57
2017-09-09T10:10:42.357Z,1.93
2017-09-09T10:13:08.991Z,2.47
2017-09-09T10:15:35.761Z,3.20
2017-09-09T10:18:02.501Z,2.20
2017-09-09T10:20:29.128Z,2.07
2017-09-09T10:22:55.804Z,1.70
2017-09-09T10:25:24.461Z,1.90
2017-09-09T10:27:51.095Z,2.03
2017-09-09T10:30:17.791Z,2.47
2017-09-09T10:32:44.507Z,2.70
2017-09-09T10:35:11.220Z,1.97
2017-09-09T10:37:37.907Z,1.73
2017-09-09T10:40:04.701Z,2.10
2017-09-09T10:42:31.397Z,2.07
2017-09-09T10:44:58.078Z,1.70
2017-09-09T10:47:24.794Z,2.20
2017-09-09T10:49:51.452Z,2.03
2017-09-09T10:52:18.148Z,1.73
2017-09-09T10:54:44.840Z,1.87
2017-09-09T10:57:11.480Z,1.47
2017-09-09T10:59:38.165Z,1.77
2017-09-09T11:02:04.836Z,1.50
2017-09-09T11:04:31.479Z,1.80
2017-09-09T11:06:58.191Z,1.80
2017-09-09T11:09:24.848Z,2.37
2017-09-09T11:11:51.559Z,2.33
2017-09-09T11:14:18.208Z,1.90
2017-09-09T11:16:44.831Z,2.10
2017-09-09T11:19:11.522Z,2.17
2017-09-09T11:21:38.262Z,1.70
2017-09-09T11:24:04.907Z,1.83
2017-09-09T11:26:31.578Z,1.90
2017-09-09T11:28:58.244Z,1.80
2017-09-09T11:31:24.935Z,2.60
2017-09-09T11:33:51.758Z,1.80
2017-09-09T11:36:18.403Z,1.80
2017-09-09T11:38:45.089Z,1.90
2017-09-09T11:41:11.739Z,2.03
2017-09-09T11:43:38.371Z,2.00
2017-09-09T11:46:05.154Z,2.30
2017-09-09T11:48:31.894Z,1.63
2017-09-09T11:50:58.578Z,1.60
2017-09-09T11:53:25.278Z,2.03
2017-09-09T11:55:51.908Z,2.10
2017-09-09T11:58:18.650Z,2.40
2017-09-09T12:00:45.324Z,1.37
2017-09-09T12:03:11.952Z,1.70
2017-09-09T12:05:38.623Z,1.60
2017-09-09T12:08:05.303Z,1.53
2017-09-09T12:10:31.940Z,1.53
2017-09-09T12:12:58.670Z,1.40
2017-09-09T12:15:25.429Z,1.73
2017-09-09T12:17:52.163Z,1.70
2017-09-09T12:20:18.837Z,1.80
2017-09-09T12:22:45.490Z,1.50
2017-09-09T12:25:12.179Z,2.00
2017-09-09T12:27:38.859Z,1.47
2017-09-09T12:30:05.536Z,1.50
2017-09-09T12:32:32.235Z,1.37
2017-09-09T12:34:58.940Z,1.60
2017-09-09T12:37:25.662Z,1.47
2017-09-09T12:39:52.354Z,1.43
2017-09-09T12:42:19.036Z,1.80
2017-09-09T12:44:45.779Z,1.57
2017-09-09T12:47:12.528Z,1.40
2017-09-09T12:49:39.260Z,1.50
2017-09-09T12:52:05.959Z,1.33
2017-09-09T12:54:32.743Z,1.20
2017-09-09T12:56:59.417Z,1.70
2017-09-09T12:59:26.120Z,1.47
2017-09-09T13:01:52.797Z,1.50
2017-09-09T13:04:19.435Z,1.43
2017-09-09T13:06:46.237Z,1.17
2017-09-09T13:09:12.927Z,1.57
2017-09-09T13:11:39.567Z,1.60
2017-09-09T13:14:06.355Z,1.50
2017-09-09T13:16:32.983Z,1.53
2017-09-09T13:18:59.621Z,1.50
2017-09-09T13:21:26.375Z,1.30
2017-09-09T13:23:53.048Z,1.60
2017-09-09T13:26:19.750Z,1.10
2017-09-09T13:28:46.425Z,1.17
2017-09-09T13:31:13.117Z,1.07
2017-09-09T13:33:39.765Z,1.10
2017-09-09T13:36:06.455Z,1.20
2017-09-09T13:38:33.084Z,1.23
2017-09-09T13:40:59.764Z,1.30
2017-09-09T13:43:26.400Z,1.37
2017-09-09T13:45:53.067Z,0.90
2017-09-09T13:48:19.800Z,1.50
2017-09-09T13:50:46.475Z,1.23
2017-09-09T13:53:13.107Z,1.13
2017-09-09T13:55:39.793Z,1.20
2017-09-09T13:58:06.518Z,1.07
2017-09-09T14:00:33.233Z,1.40
2017-09-09T14:02:59.955Z,1.50
2017-09-09T14:05:26.631Z,1.30
2017-09-09T14:07:53.282Z,1.40
2017-09-09T14:10:19.986Z,1.23
2017-09-09T14:12:46.648Z,1.40
2017-09-09T14:15:13.322Z,1.20
2017-09-09T14:17:40.137Z,1.10
2017-09-09T14:20:06.812Z,1.47
2017-09-09T14:22:33.560Z,1.20
2017-09-09T14:25:00.185Z,1.30
2017-09-09T14:27:27.018Z,0.60
2017-09-09T14:29:53.688Z,0.80
2017-09-09T14:32:20.408Z,0.97
2017-09-09T14:34:47.113Z,0.70
2017-09-09T14:37:13.791Z,0.60
2017-09-09T14:39:40.478Z,0.77
2017-09-09T14:42:07.179Z,0.67
2017-09-09T14:44:33.853Z,1.23
2017-09-09T14:47:00.533Z,0.70
2017-09-09T14:49:27.172Z,0.60
2017-09-09T14:51:53.923Z,0.67
2017-09-09T14:54:20.567Z,0.70
2017-09-09T14:56:47.258Z,0.60
2017-09-09T14:59:13.896Z,0.83
2017-09-09T15:01:40.595Z,0.60
2017-09-09T15:04:07.267Z,0.73
2017-09-09T15:06:33.902Z,0.90
2017-09-09T15:09:00.592Z,0.73
2017-09-09T15:11:27.230Z,1.20
2017-09-09T15:13:53.906Z,0.63
2017-09-09T15:16:20.538Z,0.80
2017-09-09T15:18:47.172Z,1.60
2017-09-09T15:21:13.884Z,0.90
2017-09-09T15:23:40.523Z,0.77
2017-09-09T15:26:07.167Z,0.70
2017-09-09T15:28:33.857Z,1.03
2017-09-09T15:31:00.495Z,1.00
2017-09-09T15:33:27.157Z,0.97
2017-09-09T15:35:53.866Z,1.33
2017-09-09T15:38:20.504Z,0.90
2017-09-09T15:40:47.201Z,0.70
2017-09-09T15:43:13.905Z,1.53
2017-09-09T15:45:41.592Z,1.07
2017-09-09T15:48:08.329Z,1.13
2017-09-09T15:50:35.012Z,0.90
2017-09-09T15:53:01.763Z,0.87
2017-09-09T15:55:28.525Z,0.97
2017-09-09T15:57:55.200Z,0.70
2017-09-09T16:00:21.941Z,0.80
2017-09-09T16:02:48.625Z,0.70
2017-09-09T16:05:15.319Z,1.00
2017-09-09T16:07:41.980Z,0.90
2017-09-09T16:10:08.816Z,0.80
2017-09-09T16:12:35.543Z,1.30
2017-09-09T16:15:02.290Z,1.27
2017-09-09T16:17:28.974Z,1.07
2017-09-09T16:19:55.669Z,1.00
2017-09-09T16:22:22.339Z,0.90
2017-09-09T16:24:49.067Z,1.03
2017-09-09T16:27:15.872Z,1.30
2017-09-09T16:29:42.525Z,0.90
2017-09-09T16:32:09.232Z,1.07
2017-09-09T16:34:35.941Z,1.20
2017-09-09T16:37:02.629Z,1.30
2017-09-09T16:39:30.157Z,1.30
2017-09-09T16:41:56.852Z,1.30
2017-09-09T16:44:23.569Z,1.47
2017-09-09T16:46:50.200Z,1.60
2017-09-09T16:49:16.945Z,1.50
2017-09-09T16:51:44.236Z,1.67
2017-09-09T16:54:10.921Z,1.30
2017-09-09T16:56:37.564Z,1.80
2017-09-09T16:59:04.231Z,1.30
2017-09-09T17:01:30.955Z,1.13
2017-09-09T17:03:57.579Z,1.30
2017-09-09T17:06:24.254Z,1.53
2017-09-09T17:08:50.887Z,1.20
2017-09-09T17:11:17.555Z,1.37
2017-09-09T17:13:44.193Z,1.50
2017-09-09T17:16:10.820Z,1.23
2017-09-09T17:18:37.483Z,3.43
2017-09-09T17:21:04.108Z,1.33
2017-09-09T17:23:30.788Z,1.30
2017-09-09T17:25:57.460Z,1.60
2017-09-09T17:28:24.145Z,1.40
2017-09-09T17:30:50.814Z,1.40
2017-09-09T17:33:17.555Z,0.90
2017-09-09T17:35:44.244Z,1.43
2017-09-09T17:38:10.880Z,1.00
2017-09-09T17:40:37.528Z,1.20
2017-09-09T17:43:04.200Z,1.20
2017-09-09T17:45:30.956Z,1.80
2017-09-09T17:47:57.641Z,1.10
2017-09-09T17:50:24.273Z,1.10
2017-09-09T17:52:50.965Z,1.20
2017-09-09T17:55:17.583Z,1.37
2017-09-09T17:57:44.260Z,1.10
2017-09-09T18:00:10.896Z,1.17
2017-09-09T18:02:37.567Z,1.60
2017-09-09T18:05:04.255Z,1.40
2017-09-09T18:07:30.941Z,1.27
2017-09-09T18:09:57.586Z,1.67
2017-09-09T18:12:24.272Z,1.53
2017-09-09T18:14:50.910Z,1.30
2017-09-09T18:17:17.552Z,1.50
2017-09-09T18:19:44.236Z,1.13
2017-09-09T18:22:10.929Z,1.43
2017-09-09T18:24:37.563Z,1.40
2017-09-09T18:27:04.235Z,1.30
2017-09-09T18:29:30.943Z,1.20
2017-09-09T18:31:57.610Z,1.40
2017-09-09T18:34:24.234Z,1.60
2017-09-09T18:36:50.910Z,1.33
2017-09-09T18:39:17.547Z,1.10
2017-09-09T18:41:44.185Z,1.33
2017-09-09T18:44:10.860Z,1.50
2017-09-09T18:46:37.491Z,1.40
2017-09-09T18:49:04.123Z,1.47
2017-09-09T18:51:30.834Z,1.80
2017-09-09T18:53:57.521Z,1.70
2017-09-09T18:56:24.168Z,1.43
2017-09-09T18:58:50.853Z,1.10
2017-09-09T19:01:17.495Z,1.20
2017-09-09T19:03:44.149Z,1.20
2017-09-09T19:06:10.832Z,1.50
2017-09-09T19:08:37.470Z,1.43
2017-09-09T19:11:04.103Z,1.47
2017-09-09T19:13:30.779Z,1.23
2017-09-09T19:15:57.413Z,1.60
2017-09-09T19:18:24.081Z,1.27
2017-09-09T19:20:50.698Z,1.50
2017-09-09T19:23:17.371Z,1.40
2017-09-09T19:25:44.121Z,1.60
2017-09-09T19:28:10.760Z,1.70
2017-09-09T19:30:37.440Z,1.50
2017-09-09T19:33:04.137Z,1.50
2017-09-09T19:35:30.775Z,1.33
2017-09-09T19:37:57.459Z,1.37
2017-09-09T19:40:24.149Z,1.27
2017-09-09T19:42:50.790Z,1.50
2017-09-09T19:45:17.420Z,1.57
2017-09-09T19:47:44.104Z,1.60
2017-09-09T19:50:10.739Z,1.50
2017-09-09T19:52:37.375Z,1.23
2017-09-09T19:55:04.064Z,1.23
2017-09-09T19:57:30.704Z,1.50
2017-09-09T19:59:57.339Z,1.40
2017-09-09T20:02:24.019Z,1.73
2017-09-09T20:04:50.674Z,1.60
2017-09-09T20:07:17.325Z,1.73
2017-09-09T20:09:44.004Z,1.50
2017-09-09T20:12:10.639Z,1.10
2017-09-09T20:14:37.329Z,1.13
2017-09-09T20:17:03.967Z,1.43
2017-09-09T20:19:30.629Z,1.17
2017-09-09T20:21:57.305Z,1.23
2017-09-09T20:24:23.935Z,1.43
2017-09-09T20:26:50.604Z,1.50
2017-09-09T20:29:17.280Z,1.70
2017-09-09T20:31:44.062Z,1.30
2017-09-09T20:34:10.759Z,2.13
2017-09-09T20:36:37.396Z,1.90
2017-09-09T20:39:04.084Z,1.40
2017-09-09T20:41:30.718Z,1.20
2017-09-09T20:43:57.392Z,1.70
2017-09-09T20:46:24.064Z,2.30
2017-09-09T20:48:50.707Z,1.47
2017-09-09T20:51:17.400Z,1.57
2017-09-09T20:53:44.035Z,1.57
2017-09-09T20:56:10.675Z,1.43
2017-09-09T20:58:37.360Z,1.60
2017-09-09T21:01:04.008Z,1.50
2017-09-09T21:03:30.655Z,1.63
2017-09-09T21:05:57.318Z,1.60
2017-09-09T21:08:23.955Z,1.50
2017-09-09T21:10:50.629Z,1.30
2017-09-09T21:13:17.265Z,1.23
2017-09-09T21:15:43.953Z,2.00
2017-09-09T21:18:10.603Z,1.90
2017-09-09T21:20:37.288Z,2.13
2017-09-09T21:23:03.919Z,1.77
2017-09-09T21:25:30.551Z,1.50
2017-09-09T21:27:57.219Z,1.90
2017-09-09T21:30:23.905Z,1.40
2017-09-09T21:32:50.626Z,1.53
2017-09-09T21:35:17.325Z,1.53
2017-09-09T21:37:43.972Z,1.80
2017-09-09T21:40:10.600Z,1.70
2017-09-09T21:42:37.268Z,1.33
2017-09-09T21:45:03.924Z,1.67
2017-09-09T21:47:30.609Z,1.30
2017-09-09T21:49:57.238Z,1.40
2017-09-09T21:52:23.872Z,1.40
2017-09-09T21:54:50.543Z,1.20
2017-09-09T21:57:17.175Z,1.83
2017-09-09T21:59:43.843Z,1.87
2017-09-09T22:02:10.472Z,1.50
2017-09-09T22:04:37.151Z,1.50
2017-09-09T22:07:03.779Z,1.57
2017-09-09T22:09:30.456Z,1.43
2017-09-09T22:11:57.086Z,1.87
2017-09-09T22:14:23.756Z,1.80
2017-09-09T22:16:50.393Z,1.70
2017-09-09T22:19:17.058Z,1.80
2017-09-09T22:21:43.691Z,1.80
2017-09-09T22:24:10.328Z,1.67
2017-09-09T22:26:37.003Z,1.80
2017-09-09T22:29:03.643Z,1.90
2017-09-09T22:31:30.312Z,1.73
2017-09-09T22:33:56.987Z,1.53
2017-09-09T22:36:23.621Z,1.77
2017-09-09T22:38:50.312Z,1.40
2017-09-09T22:41:16.939Z,1.80
2017-09-09T22:43:43.564Z,1.47
2017-09-09T22:46:10.226Z,2.00
2017-09-09T22:48:36.857Z,1.77
2017-09-09T22:51:03.543Z,1.57
2017-09-09T22:53:30.171Z,1.47
2017-09-09T22:55:56.801Z,1.30
2017-09-09T22:58:23.489Z,1.73
2017-09-09T23:00:50.120Z,1.73
2017-09-09T23:03:16.756Z,1.63
2017-09-09T23:05:43.443Z,1.60
2017-09-09T23:08:10.087Z,1.80
2017-09-09T23:10:36.768Z,1.60
2017-09-09T23:13:03.407Z,1.53
2017-09-09T23:15:30.048Z,1.60
2017-09-09T23:17:56.720Z,1.60
2017-09-09T23:20:23.359Z,1.57
2017-09-09T23:22:50.023Z,1.80
2017-09-09T23:25:16.652Z,1.43
2017-09-09T23:27:43.343Z,1.80
2017-09-09T23:30:09.968Z,2.40
2017-09-09T23:32:36.704Z,2.13
2017-09-09T23:35:03.377Z,1.60
2017-09-09T23:37:30.024Z,1.73
2017-09-09T23:39:56.747Z,1.83
2017-09-09T23:42:23.375Z,1.90
2017-09-09T23:44:50.008Z,1.77
2017-09-09T23:47:16.682Z,2.10
2017-09-09T23:49:43.360Z,1.83
2017-09-09T23:52:10.001Z,1.83
2017-09-09T23:54:36.635Z,2.07
2017-09-09T23:57:03.343Z,2.03
2017-09-09T23:59:30.028Z,1.90
